Terminal Aerodrome Forecast
Issued by NWS

Home | Current Version | Previous Version | Text Only | Print | Product List | Glossary On
Versions: 1 2 3 4 5 6 7 8 9 10 11 12 13 14 15 16 17 18 19
000
FTUS43 KILX 050105 AAA
TAFBMI
TAF AMD
KBMI 050105Z 0501/0524 34008KT P6SM SCT080
     FM051200 35012KT P6SM SCT070
     FM051600 36013G19KT P6SM BKN035=

USA.gov is the U.S. government's official web portal to all federal, state and local government web resources and services.